Terminal Aerodrome Forecast
Issued by NWS Cleveland, OH

Home | Current Version | Previous Version | Graphics & Text | Print | Product List | Glossary On
Versions: 1 2 3 4 5 6 7 8 9 10 11 12 13 14 15 16
000
FTUS41 KCLE 200500
TAFYNG
TAF
KYNG 200534Z 2006/2106 26012G20KT P6SM -SHSN OVC035
      TEMPO 2006/2009 26018G28KT 4SM -SHSN OVC025
     FM201400 26015G25KT P6SM OVC050
     FM202300 25012G20KT P6SM -SHSN OVC035
     FM210200 26012KT 4SM -SHSN OVC025=

USA.gov is the U.S. government's official web portal to all federal, state and local government web resources and services.